Time;durP1;ratioP1;P1;durP2;ratioP2;P2;SDS_P1;SDS_P2;PMS_P1;PMS_P2;Temp;Humidity;BMP_temperature;BMP_pressure;BME280_temperature;BME280_humidity;BME280_pressure;Samples;Min_cycle;Max_cycle;Signal;HPM_P1;HPM_P2
2024/03/20 00:02:11;;;;;;;;;;;12.50;99.90;;;12.85;62.64;100685.91;5069420;28;19927;-81
2024/03/20 00:04:40;;;;;;;;;;;12.50;99.90;;;12.84;62.97;100686.97;5115494;28;19972;-81
2024/03/20 00:07:07;;;;;;;;;;;12.50;99.90;;;12.86;62.75;100686.75;5108278;28;20387;-81
2024/03/20 00:09:35;;;;;;;;;;;12.50;99.90;;;12.86;62.88;100686.75;5095085;28;19974;-81
2024/03/20 00:12:02;;;;;;;;;;;12.50;99.90;;;12.85;63.14;100682.44;5085841;28;20010;-81
2024/03/20 00:14:29;;;;;;;;;;;12.50;99.90;;;12.85;63.42;100680.56;5117696;28;19951;-81
2024/03/20 00:16:57;;;;;;;;;;;12.50;99.90;;;12.86;63.38;100684.88;5116986;28;19934;-81
2024/03/20 00:19:25;;;;;;;;;;;12.50;99.90;;;12.85;63.90;100675.22;5116957;28;20487;-81
2024/03/20 00:21:54;;;;;;;;;;;12.50;99.90;;;12.83;63.39;100673.78;5109640;28;19930;-81
2024/03/20 00:24:22;;;;;;;;;;;12.50;99.90;;;12.80;63.71;100677.75;5096067;28;19928;-81
2024/03/20 00:26:50;;;;;;;;;;;12.50;99.90;;;12.78;63.49;100679.78;5095687;28;20467;-80
2024/03/20 00:29:17;;;;;;;;;;;12.40;99.90;;;12.79;63.68;100678.78;5078761;28;19935;-81
2024/03/20 00:31:45;;;;;;;;;;;12.50;99.90;;;12.79;63.65;100673.44;5115592;28;19924;-81
2024/03/20 00:34:13;;;;;;;;;;;12.40;99.90;;;12.79;63.69;100673.44;5115593;28;20010;-81
2024/03/20 00:36:40;;;;;;;;;;;12.50;99.90;;;12.77;63.32;100670.13;5116660;28;20408;-81
2024/03/20 00:39:08;;;;;;;;;;;12.50;99.90;;;12.76;62.97;100667.69;5115494;28;20026;-81
2024/03/20 00:41:36;;;;;;;;;;;12.40;99.90;;;12.76;62.88;100667.69;5104400;28;19997;-81
2024/03/20 00:44:03;;;;;;;;;;;12.50;99.90;;;12.74;62.67;100670.59;5101569;28;19930;-81
2024/03/20 00:46:30;;;;;;;;;;;12.50;99.90;;;12.76;62.83;100668.50;5095035;28;19973;-81
2024/03/20 00:48:59;;;;;;;;;;;12.50;99.90;;;12.80;63.05;100669.72;5094646;28;20398;-81
2024/03/20 00:51:28;;;;;;;;;;;12.50;99.90;;;12.80;63.05;100661.69;5108025;28;20349;-81
2024/03/20 00:53:55;;;;;;;;;;;12.50;99.90;;;12.81;62.61;100663.31;5116891;28;19938;-81
2024/03/20 00:56:24;;;;;;;;;;;12.50;99.90;;;12.83;62.85;100658.56;5103893;28;20019;-81
2024/03/20 00:58:51;;;;;;;;;;;12.60;99.90;;;12.84;62.99;100667.41;5094797;28;19924;-81
2024/03/20 01:01:18;;;;;;;;;;;12.60;99.90;;;12.85;63.24;100661.03;5078949;28;19935;-81
2024/03/20 01:03:45;;;;;;;;;;;12.60;99.90;;;12.84;63.23;100656.72;5095809;28;19993;-81
2024/03/20 01:06:13;;;;;;;;;;;12.60;99.90;;;12.84;63.46;100654.84;5061434;28;19978;-81
2024/03/20 01:08:43;;;;;;;;;;;12.60;99.90;;;12.85;63.17;100655.66;5097386;28;19924;-81
2024/03/20 01:11:09;;;;;;;;;;;12.60;99.90;;;12.86;63.36;100657.28;5105302;28;20022;-81
2024/03/20 01:13:38;;;;;;;;;;;12.60;99.90;;;12.85;63.12;100661.03;5116776;28;19928;-81
2024/03/20 01:16:05;;;;;;;;;;;12.50;99.90;;;12.81;63.99;100657.13;5114878;28;19924;-81
2024/03/20 01:18:33;;;;;;;;;;;12.40;99.90;;;12.72;64.25;100653.09;5116389;28;19930;-81
2024/03/20 01:21:00;;;;;;;;;;;12.30;99.90;;;12.66;64.64;100659.34;5097508;28;19924;-81
2024/03/20 01:23:27;;;;;;;;;;;12.30;99.90;;;12.64;64.97;100659.56;5116331;28;19959;-82
2024/03/20 01:25:56;;;;;;;;;;;12.20;99.90;;;12.61;64.77;100651.97;5115011;28;20011;-81
2024/03/20 01:28:27;;;;;;;;;;;12.20;99.90;;;12.59;64.68;100654.88;5115456;28;19924;-81
2024/03/20 01:30:57;;;;;;;;;;;12.20;99.90;;;12.55;64.93;100651.00;5120330;28;19949;-81
2024/03/20 01:33:27;;;;;;;;;;;12.10;99.90;;;12.49;64.93;100648.38;5085714;28;20299;-81
2024/03/20 01:35:54;;;;;;;;;;;12.10;99.90;;;12.42;64.85;100642.28;5103317;28;19962;-81
2024/03/20 01:38:22;;;;;;;;;;;12.00;99.90;;;12.41;65.13;100654.00;5081231;28;19932;-81
2024/03/20 01:40:49;;;;;;;;;;;12.00;99.90;;;12.36;65.22;100644.78;5107244;28;19927;-81
2024/03/20 01:43:18;;;;;;;;;;;11.90;99.90;;;12.32;65.10;100648.94;5120112;28;20495;-81
2024/03/20 01:45:46;;;;;;;;;;;11.90;99.90;;;12.27;64.90;100650.63;5049765;28;19930;-81
2024/03/20 01:48:15;;;;;;;;;;;11.80;99.90;;;12.18;65.19;100649.25;5085301;28;19928;-81
2024/03/20 01:50:43;;;;;;;;;;;11.80;99.90;;;12.10;65.28;100645.81;5119457;28;19996;-81
2024/03/20 01:53:13;;;;;;;;;;;11.70;99.90;;;12.07;65.25;100648.09;5119991;28;19928;-81
2024/03/20 01:55:40;;;;;;;;;;;11.60;99.90;;;12.06;65.40;100643.78;5101793;28;19924;-81
2024/03/20 01:58:08;;;;;;;;;;;11.60;99.90;;;12.03;65.48;100653.06;5101052;28;19949;-81
2024/03/20 02:00:35;;;;;;;;;;;11.60;99.90;;;12.04;65.58;100637.81;5114431;28;19931;-81
2024/03/20 02:03:03;;;;;;;;;;;11.60;99.90;;;12.07;65.70;100645.44;5065168;28;19954;-81
2024/03/20 02:05:32;;;;;;;;;;;11.60;99.90;;;12.06;65.71;100646.47;5099738;28;20398;-81
2024/03/20 02:07:59;;;;;;;;;;;11.60;99.90;;;12.05;65.67;100640.31;5099673;28;19924;-81
2024/03/20 02:10:27;;;;;;;;;;;11.60;99.90;;;12.07;65.51;100642.75;5081476;28;19928;-81
2024/03/20 02:13:15;;;;;;;;;;;11.60;99.90;;;12.01;65.25;100644.44;5081798;28;19924;-81
2024/03/20 02:15:47;;;;;;;;;;;11.50;99.90;;;11.95;65.48;100649.81;5072811;28;20394;-81
2024/03/20 02:18:14;;;;;;;;;;;11.50;99.90;;;11.88;65.61;100646.38;5084907;28;19923;-81
2024/03/20 02:20:42;;;;;;;;;;;11.40;99.90;;;11.84;65.39;100651.31;5095732;28;19924;-81
2024/03/20 02:23:12;;;;;;;;;;;11.40;99.90;;;11.81;65.76;100655.22;5098931;28;20387;-81
2024/03/20 02:25:40;;;;;;;;;;;11.40;99.90;;;11.79;65.90;100649.25;5082458;28;19928;-81
2024/03/20 02:28:07;;;;;;;;;;;11.30;99.90;;;11.81;65.81;100649.88;5064331;28;20023;-81
2024/03/20 02:30:34;;;;;;;;;;;11.40;99.90;;;11.82;66.02;100646.22;5101588;28;19924;-81
2024/03/20 02:33:04;;;;;;;;;;;11.30;99.90;;;11.84;66.08;100652.13;5091071;28;19924;-81
2024/03/20 02:35:31;;;;;;;;;;;11.40;99.90;;;11.85;66.08;100656.44;5081565;28;19931;-81
2024/03/20 02:37:59;;;;;;;;;;;11.30;99.90;;;11.87;65.92;100650.09;5099834;28;19932;-81
2024/03/20 02:40:27;;;;;;;;;;;11.40;99.90;;;11.88;66.03;100649.06;5084227;28;19924;-81
2024/03/20 02:42:57;;;;;;;;;;;11.40;99.90;;;11.88;66.17;100646.38;5120695;28;19928;-81
2024/03/20 02:45:24;;;;;;;;;;;11.40;99.90;;;11.86;66.19;100654.63;5119585;28;19928;-81
2024/03/20 02:47:52;;;;;;;;;;;11.40;99.90;;;11.80;66.54;100650.91;5119066;28;19955;-81
2024/03/20 02:50:19;;;;;;;;;;;11.40;99.90;;;11.81;66.79;100646.41;5114997;28;19958;-81
2024/03/20 02:52:46;;;;;;;;;;;11.40;99.90;;;11.80;66.76;100644.72;5120311;28;19924;-81
2024/03/20 02:55:13;;;;;;;;;;;11.40;99.90;;;11.83;66.86;100641.69;5118979;28;19927;-81
2024/03/20 02:57:42;;;;;;;;;;;11.40;99.90;;;11.82;66.78;100643.53;5101481;28;19923;-81
2024/03/20 03:00:10;;;;;;;;;;;11.40;99.90;;;11.82;66.73;100643.53;5085711;28;19928;-81
2024/03/20 03:02:37;;;;;;;;;;;11.40;99.90;;;11.83;66.87;100645.16;5047100;28;19924;-81
2024/03/20 03:05:05;;;;;;;;;;;11.40;99.90;;;11.81;66.80;100644.53;5063918;28;19959;-81
2024/03/20 03:07:33;;;;;;;;;;;11.40;99.90;;;11.83;66.71;100641.69;5080035;28;19928;-81
2024/03/20 03:10:00;;;;;;;;;;;11.40;99.90;;;11.83;66.64;100647.84;5098406;28;19987;-81
2024/03/20 03:12:27;;;;;;;;;;;11.40;99.90;;;11.83;66.80;100649.69;5080882;28;19969;-81
2024/03/20 03:14:56;;;;;;;;;;;11.40;99.90;;;11.83;66.76;100649.69;5047364;28;19924;-81
2024/03/20 03:17:23;;;;;;;;;;;11.40;99.90;;;11.81;66.75;100644.53;5098878;28;19950;-81
2024/03/20 03:19:51;;;;;;;;;;;11.40;99.90;;;11.82;67.01;100643.53;5078188;28;20313;-81
2024/03/20 03:22:18;;;;;;;;;;;11.40;99.90;;;11.80;66.94;100642.06;5083717;28;20042;-81
2024/03/20 03:24:46;;;;;;;;;;;11.30;99.90;;;11.78;66.98;100639.63;5103734;28;19959;-81
2024/03/20 03:27:14;;;;;;;;;;;11.40;99.90;;;11.76;66.91;100641.69;5114681;28;19950;-81
2024/03/20 03:29:41;;;;;;;;;;;11.30;99.90;;;11.76;66.97;100647.03;5093088;28;20002;-81
2024/03/20 03:32:10;;;;;;;;;;;11.30;99.90;;;11.77;66.85;100640.66;5100418;28;19970;-81
2024/03/20 03:34:37;;;;;;;;;;;11.30;99.90;;;11.74;67.05;100648.28;5100615;28;20401;-81
2024/03/20 03:37:05;;;;;;;;;;;11.30;99.90;;;11.74;66.92;100649.09;5118443;28;20015;-81
2024/03/20 03:39:32;;;;;;;;;;;11.30;99.90;;;11.71;66.86;100643.34;5078964;28;19998;-81
2024/03/20 03:42:00;;;;;;;;;;;11.20;99.90;;;11.71;66.97;100644.19;5100249;28;19972;-81
2024/03/20 03:44:30;;;;;;;;;;;11.20;99.90;;;11.70;66.89;100644.38;5099839;28;20390;-81
2024/03/20 03:46:57;;;;;;;;;;;11.20;99.90;;;11.67;66.73;100648.31;5118031;28;19923;-81
2024/03/20 03:49:26;;;;;;;;;;;11.20;99.90;;;11.66;66.76;100646.66;5107997;28;19924;-81
2024/03/20 03:51:54;;;;;;;;;;;11.20;99.90;;;11.65;66.79;100646.88;5097368;28;19934;-81
2024/03/20 03:54:21;;;;;;;;;;;11.20;99.90;;;11.63;66.88;100651.63;5079423;28;19924;-81
2024/03/20 03:56:48;;;;;;;;;;;11.20;99.90;;;11.61;66.99;100646.47;5063416;28;20015;-81
2024/03/20 03:59:17;;;;;;;;;;;11.10;99.90;;;11.62;66.98;100642.00;5097815;28;20345;-80
2024/03/20 04:01:45;;;;;;;;;;;11.10;99.90;;;11.58;66.87;100650.41;5080094;28;19987;-80
2024/03/20 04:04:13;;;;;;;;;;;11.10;99.90;;;11.57;67.09;100647.97;5097846;28;19924;-81
2024/03/20 04:06:43;;;;;;;;;;;11.10;99.90;;;11.53;66.97;100652.91;5080153;28;19954;-81
2024/03/20 04:09:11;;;;;;;;;;;11.00;99.90;;;11.51;66.95;100654.13;5107652;28;20019;-81
2024/03/20 04:11:38;;;;;;;;;;;11.00;99.90;;;11.50;66.96;100647.16;5083400;28;19924;-81
2024/03/20 04:14:08;;;;;;;;;;;11.00;99.90;;;11.49;66.95;100646.34;5118412;28;19924;-80
2024/03/20 04:16:35;;;;;;;;;;;11.00;99.90;;;11.50;67.06;100644.50;5099426;28;19930;-81
2024/03/20 04:19:02;;;;;;;;;;;11.00;99.90;;;11.48;67.07;100643.91;5074822;28;19950;-81
2024/03/20 04:21:30;;;;;;;;;;;11.00;99.90;;;11.45;67.24;100639.78;5097871;28;19931;-80
2024/03/20 04:23:58;;;;;;;;;;;10.90;99.90;;;11.45;67.02;100641.63;5062724;28;19966;-80
2024/03/20 04:26:27;;;;;;;;;;;10.90;99.90;;;11.44;67.07;100640.81;5097853;28;19930;-80
2024/03/20 04:28:54;;;;;;;;;;;11.00;99.90;;;11.46;67.03;100643.28;5078400;28;19932;-81
2024/03/20 04:31:21;;;;;;;;;;;10.90;99.90;;;11.43;66.99;100639.19;5092932;28;19931;-81
2024/03/20 04:33:49;;;;;;;;;;;10.90;99.90;;;11.43;66.90;100647.19;5079147;28;20748;-80
2024/03/20 04:36:16;;;;;;;;;;;10.90;99.90;;;11.42;67.16;100647.41;5096996;28;19928;-81
2024/03/20 04:38:43;;;;;;;;;;;10.90;99.90;;;11.39;67.29;100639.81;5116262;28;19976;-81
2024/03/20 04:41:12;;;;;;;;;;;10.90;99.90;;;11.40;67.12;100649.47;5115892;28;19963;-80
2024/03/20 04:43:40;;;;;;;;;;;10.90;99.90;;;11.34;67.05;100648.47;5115571;28;20018;-81
2024/03/20 04:46:07;;;;;;;;;;;10.80;99.90;;;11.29;67.31;100649.09;5115941;28;19924;-80
2024/03/20 04:48:34;;;;;;;;;;;10.80;99.90;;;11.29;67.40;100648.28;5117263;28;20013;-80
2024/03/20 04:51:01;;;;;;;;;;;10.80;99.90;;;11.25;67.37;100653.22;5116614;28;19928;-80
2024/03/20 04:53:29;;;;;;;;;;;10.80;99.90;;;11.22;67.35;100650.16;5117993;28;20310;-80
2024/03/20 04:55:56;;;;;;;;;;;10.70;99.90;;;11.20;67.28;100658.38;5114546;28;19955;-80
2024/03/20 04:58:25;;;;;;;;;;;10.70;99.90;;;11.20;67.32;100660.22;5115744;28;19947;-80
2024/03/20 05:00:52;;;;;;;;;;;10.70;99.90;;;11.19;67.47;100658.59;5116983;28;19928;-81
2024/03/20 05:03:20;;;;;;;;;;;10.70;99.90;;;11.15;67.46;100657.38;5118234;28;19923;-81
2024/03/20 05:05:47;;;;;;;;;;;10.70;99.90;;;11.11;67.46;100651.63;5120970;28;20010;-81
2024/03/20 05:08:14;;;;;;;;;;;10.70;99.90;;;11.11;67.52;100661.47;5119147;28;20014;-81
2024/03/20 05:10:42;;;;;;;;;;;10.60;99.90;;;11.11;67.61;100653.47;5120442;28;19928;-81
2024/03/20 05:13:09;;;;;;;;;;;10.60;99.90;;;11.08;67.62;100655.53;5152718;27;20421;-80
2024/03/20 05:15:40;;;;;;;;;;;10.60;99.90;;;11.06;67.68;100652.25;5118946;28;19937;-79
2024/03/20 05:18:08;;;;;;;;;;;10.60;99.90;;;11.08;67.77;100660.06;5118056;28;19952;-79
2024/03/20 05:20:35;;;;;;;;;;;10.60;99.90;;;11.07;67.50;100661.06;5117527;28;20039;-79
2024/03/20 05:23:01;;;;;;;;;;;10.60;99.90;;;11.07;67.74;100658.41;5117102;28;20348;-79
2024/03/20 05:25:28;;;;;;;;;;;10.60;99.90;;;11.08;68.08;100666.22;5116517;28;19972;-79
2024/03/20 05:27:55;;;;;;;;;;;10.60;99.90;;;11.06;68.10;100673.59;5116845;28;19924;-79
2024/03/20 05:30:22;;;;;;;;;;;10.60;99.90;;;11.03;67.98;100674.03;5099939;28;19924;-80
2024/03/20 05:32:50;;;;;;;;;;;10.60;99.90;;;11.06;68.26;100676.28;5100865;28;19973;-80
2024/03/20 05:35:18;;;;;;;;;;;10.60;99.90;;;11.05;68.22;100671.16;5118607;28;19924;-79
2024/03/20 05:37:44;;;;;;;;;;;10.60;99.90;;;11.03;68.53;100676.72;5117321;28;20019;-79
2024/03/20 05:40:12;;;;;;;;;;;10.60;99.90;;;11.02;68.51;100674.22;5117916;28;19966;-79
2024/03/20 05:42:39;;;;;;;;;;;10.50;99.90;;;11.01;68.69;100684.09;5118974;28;20671;-80
2024/03/20 05:45:06;;;;;;;;;;;10.60;99.90;;;11.01;68.75;100675.25;5100561;28;20351;-79
2024/03/20 05:47:33;;;;;;;;;;;10.60;99.90;;;11.03;69.00;100674.03;5117016;28;19981;-80
2024/03/20 05:50:02;;;;;;;;;;;10.60;99.90;;;11.07;69.24;100667.22;5118848;28;20027;-80
2024/03/20 05:52:28;;;;;;;;;;;10.70;99.90;;;11.11;69.02;100672.97;5119207;28;19944;-81
2024/03/20 05:54:57;;;;;;;;;;;10.70;99.90;;;11.08;68.95;100671.56;5102007;28;20322;-84
2024/03/20 05:57:23;;;;;;;;;;;10.70;99.90;;;11.05;69.43;100671.16;5088431;28;19930;-83
2024/03/20 05:59:52;;;;;;;;;;;10.60;99.90;;;11.04;69.26;100681.00;5047745;28;20408;-82
2024/03/20 06:02:18;;;;;;;;;;;10.70;99.90;;;11.04;69.19;100674.84;5109023;28;19923;-84
2024/03/20 06:04:45;;;;;;;;;;;10.60;99.90;;;11.06;69.20;100678.13;5120389;28;19928;-83
2024/03/20 06:07:13;;;;;;;;;;;10.70;99.90;;;11.06;69.24;100684.28;5099670;28;19931;-84
2024/03/20 06:09:41;;;;;;;;;;;10.70;99.90;;;11.09;69.33;100685.72;5100499;28;19959;-82
2024/03/20 06:12:09;;;;;;;;;;;10.70;99.90;;;11.13;69.40;100678.13;5119704;28;19968;-84
2024/03/20 06:14:36;;;;;;;;;;;10.70;99.90;;;11.16;69.55;100673.16;5100586;28;19959;-84
2024/03/20 06:17:04;;;;;;;;;;;10.80;99.90;;;11.15;69.63;100687.56;5101789;28;19966;-84
2024/03/20 06:19:33;;;;;;;;;;;10.80;99.90;;;11.16;69.72;100683.03;5088289;28;19998;-82
2024/03/20 06:21:59;;;;;;;;;;;10.70;99.90;;;11.15;69.79;100687.56;5063617;28;20391;-82
2024/03/20 06:24:27;;;;;;;;;;;10.80;99.90;;;11.15;69.76;100692.88;5079199;28;20005;-82
2024/03/20 06:26:54;;;;;;;;;;;10.70;99.90;;;11.15;69.78;100690.22;5080490;28;19924;-81
2024/03/20 06:29:22;;;;;;;;;;;10.80;99.90;;;11.16;69.87;100691.03;5079587;28;20163;-81
2024/03/20 06:31:50;;;;;;;;;;;10.80;99.90;;;11.20;69.90;100695.75;5098863;28;19970;-81
2024/03/20 06:34:17;;;;;;;;;;;10.80;99.90;;;11.24;69.96;100691.63;5116269;27;19924;-81
2024/03/20 06:36:43;;;;;;;;;;;10.80;99.90;;;11.26;70.02;100696.75;5079318;28;20379;-81
2024/03/20 06:39:10;;;;;;;;;;;10.90;99.90;;;11.25;69.90;100695.94;5097116;28;19967;-81
2024/03/20 06:41:38;;;;;;;;;;;10.90;99.90;;;11.30;70.02;100701.47;5080818;28;19924;-81
2024/03/20 06:44:07;;;;;;;;;;;10.90;99.90;;;11.31;70.29;100703.09;5064164;28;20601;-81
2024/03/20 06:46:33;;;;;;;;;;;10.90;99.90;;;11.30;70.12;100701.47;5097698;28;19971;-81
2024/03/20 06:49:02;;;;;;;;;;;10.90;99.90;;;11.34;70.39;100710.69;5078821;28;19924;-80
2024/03/20 06:51:35;;;;;;;;;;;11.00;99.90;;;11.40;70.50;100706.38;5077727;28;19924;-80
2024/03/20 06:54:09;;;;;;;;;;;11.00;99.90;;;11.42;70.54;100717.69;5078160;28;19935;-80
2024/03/20 06:56:37;;;;;;;;;;;11.10;99.90;;;11.48;70.63;100719.50;5078325;28;20303;-80
2024/03/20 06:59:04;;;;;;;;;;;11.10;99.90;;;11.50;70.75;100716.59;5097777;28;19931;-81
2024/03/20 07:01:30;;;;;;;;;;;11.10;99.90;;;11.51;70.89;100723.59;5061936;28;20018;-81
2024/03/20 07:03:57;;;;;;;;;;;11.20;99.90;;;11.54;70.76;100725.84;5097141;28;19931;-81
2024/03/20 07:06:24;;;;;;;;;;;11.20;99.90;;;11.58;70.79;100729.75;5097077;28;19955;-81
2024/03/20 07:08:51;;;;;;;;;;;11.20;99.90;;;11.59;71.05;100713.47;5078454;28;19928;-81
2024/03/20 07:11:17;;;;;;;;;;;11.30;99.90;;;11.65;71.27;100719.84;5078591;28;19936;-81
2024/03/20 07:13:46;;;;;;;;;;;11.40;99.90;;;11.72;71.15;100717.97;5062826;28;19931;-81
2024/03/20 07:16:12;;;;;;;;;;;11.40;99.90;;;11.78;71.10;100722.44;5079048;28;20364;-82
2024/03/20 07:18:39;;;;;;;;;;;11.50;99.90;;;11.85;71.29;100725.94;5097246;28;19931;-85
2024/03/20 07:21:06;;;;;;;;;;;11.60;99.90;;;11.92;71.31;100722.44;5038360;28;19997;-81
2024/03/20 07:23:33;;;;;;;;;;;11.60;99.90;;;11.96;70.94;100726.31;5101351;28;20015;-80
2024/03/20 07:25:59;;;;;;;;;;;11.70;99.90;;;12.01;71.26;100723.81;5118847;28;19930;-80
2024/03/20 07:28:27;;;;;;;;;;;11.80;99.90;;;12.03;71.69;100727.09;5100626;28;19934;-80
2024/03/20 07:30:54;;;;;;;;;;;11.80;99.90;;;12.07;71.51;100718.44;5117855;28;20401;-80
2024/03/20 07:33:21;;;;;;;;;;;11.80;99.90;;;12.12;71.38;100715.09;5080151;28;19977;-81
2024/03/20 07:35:47;;;;;;;;;;;11.90;99.90;;;12.19;71.29;100725.75;5077522;28;19955;-81
2024/03/20 07:38:15;;;;;;;;;;;12.00;99.90;;;12.24;71.41;100723.25;5077189;28;19931;-81
2024/03/20 07:40:43;;;;;;;;;;;12.10;99.90;;;12.29;71.04;100715.41;5095543;28;19986;-81
2024/03/20 07:43:10;;;;;;;;;;;12.10;99.90;;;12.34;70.81;100726.25;5077129;28;19984;-81
2024/03/20 07:45:36;;;;;;;;;;;12.20;99.90;;;12.39;70.31;100726.44;5110821;28;19924;-81
2024/03/20 07:48:06;;;;;;;;;;;12.30;99.90;;;12.44;71.02;100733.81;5095467;28;19938;-83
2024/03/20 07:50:33;;;;;;;;;;;12.40;99.90;;;12.50;72.57;100727.63;5077968;28;20015;-84
2024/03/20 07:53:00;;;;;;;;;;;12.50;99.90;;;12.56;71.62;100732.09;5077618;28;19924;-80
2024/03/20 07:55:27;;;;;;;;;;;12.50;99.90;;;12.61;69.95;100735.75;5077818;28;19934;-81
2024/03/20 07:57:54;;;;;;;;;;;12.70;99.90;;;12.70;69.42;100736.31;5086896;28;19923;-81
2024/03/20 08:00:28;;;;;;;;;;;12.70;99.90;;;12.77;69.26;100734.38;5098104;28;19970;-81
2024/03/20 08:02:55;;;;;;;;;;;12.80;99.90;;;12.82;68.20;100734.53;5116682;28;20014;-81
2024/03/20 08:05:23;;;;;;;;;;;12.90;99.90;;;12.86;67.83;100740.28;5097852;28;19935;-81
2024/03/20 08:07:52;;;;;;;;;;;13.00;99.90;;;12.92;68.01;100735.91;5097847;28;19927;-80
2024/03/20 08:10:18;;;;;;;;;;;13.00;99.90;;;12.98;67.80;100740.38;5116432;28;20386;-81
2024/03/20 08:12:46;;;;;;;;;;;13.10;99.90;;;13.04;68.50;100744.84;5085062;28;20014;-81
2024/03/20 08:15:12;;;;;;;;;;;13.20;99.90;;;13.11;67.72;100745.59;5077600;28;19928;-81
2024/03/20 08:17:39;;;;;;;;;;;13.20;99.90;;;13.19;68.26;100748.00;5077451;28;20409;-81
2024/03/20 08:20:12;;;;;;;;;;;13.30;99.90;;;13.28;68.72;100741.34;5026739;28;19924;-81
2024/03/20 08:22:41;;;;;;;;;;;13.40;99.90;;;13.39;68.65;100745.16;5061483;28;19970;-81
2024/03/20 08:25:08;;;;;;;;;;;13.60;99.90;;;13.48;67.75;100751.84;5095538;28;19946;-81
2024/03/20 08:27:35;;;;;;;;;;;13.70;99.90;;;13.55;68.05;100757.13;5060276;28;19928;-81
2024/03/20 08:30:02;;;;;;;;;;;13.80;99.90;;;13.65;67.44;100758.22;5095585;28;19977;-81
2024/03/20 08:32:30;;;;;;;;;;;13.80;99.90;;;13.69;66.11;100761.28;5077103;28;20458;-81
2024/03/20 08:34:56;;;;;;;;;;;13.90;99.90;;;13.71;65.59;100751.16;5059678;28;20008;-81
2024/03/20 08:37:24;;;;;;;;;;;13.90;99.90;;;13.75;66.84;100752.34;5076764;28;19924;-81
2024/03/20 08:39:53;;;;;;;;;;;13.90;99.90;;;13.79;66.17;100755.41;5081489;28;19925;-81
2024/03/20 08:42:20;;;;;;;;;;;14.00;99.90;;;13.83;66.04;100752.03;5115769;28;19984;-81
2024/03/20 08:44:46;;;;;;;;;;;14.00;99.90;;;13.85;65.41;100752.63;5115616;28;20394;-81
2024/03/20 08:47:13;;;;;;;;;;;14.00;99.90;;;13.91;65.31;100756.28;5115240;28;19931;-81
2024/03/20 08:49:44;;;;;;;;;;;14.10;99.90;;;14.00;65.88;100756.78;5097388;28;19967;-81
2024/03/20 08:52:12;;;;;;;;;;;14.20;99.90;;;14.04;65.33;100760.63;5064665;28;19923;-81
2024/03/20 08:54:42;;;;;;;;;;;14.30;99.90;;;14.09;65.75;100760.78;5115376;28;19924;-81
2024/03/20 08:57:11;;;;;;;;;;;14.30;99.90;;;14.14;65.28;100759.03;5115286;28;19979;-81
2024/03/20 08:59:38;;;;;;;;;;;14.30;99.90;;;14.19;64.38;100758.38;5080278;28;19962;-81
2024/03/20 09:02:07;;;;;;;;;;;14.40;99.90;;;14.26;64.12;100758.28;5097163;28;19924;-81
2024/03/20 09:04:33;;;;;;;;;;;14.50;99.90;;;14.37;65.61;100760.19;5115250;28;20389;-81
2024/03/20 09:07:00;;;;;;;;;;;14.60;99.90;;;14.47;64.29;100748.91;5078586;28;19930;-81
2024/03/20 09:09:28;;;;;;;;;;;14.70;99.90;;;14.52;64.88;100757.09;5079893;28;19934;-81
2024/03/20 09:11:56;;;;;;;;;;;14.80;99.90;;;14.56;64.18;100751.03;5097422;28;20462;-81
2024/03/20 09:14:23;;;;;;;;;;;14.80;99.90;;;14.60;64.42;100754.09;5097182;28;20019;-80
2024/03/20 09:16:53;;;;;;;;;;;14.90;99.90;;;14.63;63.34;100757.13;5114756;28;19971;-81
2024/03/20 09:19:21;;;;;;;;;;;14.90;99.90;;;14.71;64.14;100755.97;5114818;28;19969;-81
2024/03/20 09:21:48;;;;;;;;;;;15.00;99.90;;;14.76;63.42;100748.03;5115208;28;19932;-81
2024/03/20 09:24:18;;;;;;;;;;;15.00;99.90;;;14.82;63.15;100747.09;5097520;28;19931;-81
2024/03/20 09:26:44;;;;;;;;;;;15.10;99.90;;;14.85;63.24;100748.53;5097245;28;19924;-81
2024/03/20 09:29:12;;;;;;;;;;;15.10;99.90;;;14.86;63.20;100753.66;5115724;28;19958;-81
2024/03/20 09:31:39;;;;;;;;;;;15.10;99.90;;;14.83;62.97;100750.59;5114818;28;19930;-81
2024/03/20 09:34:06;;;;;;;;;;;15.10;99.90;;;14.87;62.65;100749.09;5087935;28;19947;-81
2024/03/20 09:36:32;;;;;;;;;;;15.10;99.90;;;14.90;63.56;100752.13;5094471;28;19981;-81
2024/03/20 09:39:00;;;;;;;;;;;15.10;99.90;;;14.96;62.73;100753.06;5076144;28;19931;-81
2024/03/20 09:41:27;;;;;;;;;;;15.20;99.90;;;14.99;63.72;100739.19;5094409;28;19924;-80
2024/03/20 09:43:54;;;;;;;;;;;15.20;99.90;;;15.03;62.93;100755.63;5076264;28;19968;-81
2024/03/20 09:46:22;;;;;;;;;;;15.30;99.90;;;15.10;63.92;100748.28;5059592;28;19931;-81
2024/03/20 09:48:50;;;;;;;;;;;15.40;99.90;;;15.17;63.75;100754.34;5094158;28;19924;-81
2024/03/20 09:51:19;;;;;;;;;;;15.40;99.90;;;15.21;64.55;100744.78;5096624;28;20674;-81
2024/03/20 09:53:47;;;;;;;;;;;15.50;99.90;;;15.28;63.50;100740.09;5063335;28;19982;-81
2024/03/20 09:56:15;;;;;;;;;;;15.50;99.90;;;15.31;62.78;100738.81;5080140;28;19967;-81
2024/03/20 09:58:42;;;;;;;;;;;15.50;99.90;;;15.27;63.34;100738.44;5096875;28;19924;-81
2024/03/20 10:01:13;;;;;;;;;;;15.50;99.90;;;15.34;64.12;100741.84;5079518;28;19924;-81
2024/03/20 10:03:39;;;;;;;;;;;15.60;99.90;;;15.37;62.23;100737.84;5098399;28;20023;-81
2024/03/20 10:06:08;;;;;;;;;;;15.70;99.90;;;15.43;63.20;100740.44;5114249;28;19930;-81
2024/03/20 10:08:37;;;;;;;;;;;15.70;99.90;;;15.42;63.12;100737.97;5092515;28;20341;-81
2024/03/20 10:11:04;;;;;;;;;;;15.60;99.90;;;15.47;63.13;100746.16;5045500;28;19924;-81
2024/03/20 10:13:31;;;;;;;;;;;15.70;99.90;;;15.44;61.76;100738.56;5085417;28;19924;-81
2024/03/20 10:16:05;;;;;;;;;;;15.70;99.90;;;15.55;63.17;100740.41;5116923;28;19931;-81
2024/03/20 10:18:32;;;;;;;;;;;15.80;99.90;;;15.63;62.74;100739.22;5117577;28;19930;-81
2024/03/20 10:20:59;;;;;;;;;;;15.90;99.90;;;15.65;61.95;100739.81;5117666;28;19977;-80
2024/03/20 10:23:27;;;;;;;;;;;15.90;99.90;;;15.66;61.63;100736.06;5064809;28;19959;-81
2024/03/20 10:25:58;;;;;;;;;;;15.90;99.90;;;15.67;62.02;100743.91;5081858;28;19927;-80
2024/03/20 10:28:28;;;;;;;;;;;15.90;99.90;;;15.78;62.36;100739.56;5117276;28;19927;-81
2024/03/20 10:31:00;;;;;;;;;;;16.00;99.90;;;15.82;61.86;100734.53;5108626;28;20006;-80
2024/03/20 10:33:27;;;;;;;;;;;16.10;99.90;;;15.81;61.46;100736.41;5117250;27;20014;-80
2024/03/20 10:35:55;;;;;;;;;;;16.00;99.90;;;15.81;61.67;100728.34;5114369;28;19927;-80
2024/03/20 10:38:22;;;;;;;;;;;16.00;99.90;;;15.82;61.82;100724.59;5117163;28;19924;-80
2024/03/20 10:40:52;;;;;;;;;;;16.00;99.90;;;15.83;61.90;100730.78;5115628;28;19927;-81
2024/03/20 10:43:20;;;;;;;;;;;16.10;99.90;;;15.84;61.12;100733.22;5116745;28;19970;-80
2024/03/20 10:45:49;;;;;;;;;;;16.10;99.90;;;15.93;61.83;100731.78;5098561;28;19931;-80
2024/03/20 10:48:16;;;;;;;;;;;16.20;99.90;;;16.04;61.27;100727.41;5116017;28;19930;-81
2024/03/20 10:50:46;;;;;;;;;;;16.30;99.90;;;16.01;60.87;100730.59;5117186;28;19931;-80
2024/03/20 10:53:13;;;;;;;;;;;16.20;99.90;;;16.06;61.79;100727.19;5107525;28;20466;-80
2024/03/20 10:55:40;;;;;;;;;;;16.30;99.90;;;16.03;61.18;100725.78;5062279;28;19967;-80
2024/03/20 10:58:09;;;;;;;;;;;16.30;99.90;;;16.02;60.74;100723.34;5095792;28;19924;-80
2024/03/20 11:00:37;;;;;;;;;;;16.30;99.90;;;16.10;61.12;100725.63;5095106;28;19955;-80
2024/03/20 11:03:39;;;;;;;;;;;16.30;99.90;;;16.22;60.56;100719.13;5096400;28;20631;-81
2024/03/20 11:06:44;;;;;;;;;;;16.40;99.90;;;16.26;60.46;100716.78;5095259;28;19924;-80
2024/03/20 11:09:20;;;;;;;;;;;16.50;99.90;;;16.28;59.95;100716.53;5096335;28;19924;-80
2024/03/20 11:11:48;;;;;;;;;;;16.50;99.90;;;16.28;59.23;100717.34;5094825;28;19931;-81
2024/03/20 11:14:27;;;;;;;;;;;16.60;99.90;;;16.32;59.19;100713.09;5096795;28;20003;-80